sensor_id;sensor_type;location;lat;lon;timestamp;P1;durP1;ratioP1;P2;durP2;ratioP2
41233;SDS011;26968;42.686;23.352;2022-12-08T00:01:31;60.03;;;25.63;;
41233;SDS011;26968;42.686;23.352;2022-12-08T00:03:58;57.08;;;24.00;;
41233;SDS011;26968;42.686;23.352;2022-12-08T00:09:18;60.85;;;24.40;;
41233;SDS011;26968;42.686;23.352;2022-12-08T00:11:47;57.88;;;23.42;;
41233;SDS011;26968;42.686;23.352;2022-12-08T00:14:31;53.47;;;22.65;;
41233;SDS011;26968;42.686;23.352;2022-12-08T00:16:58;63.42;;;24.13;;
41233;SDS011;26968;42.686;23.352;2022-12-08T00:19:24;62.80;;;25.42;;
41233;SDS011;26968;42.686;23.352;2022-12-08T00:21:52;63.35;;;25.35;;
41233;SDS011;26968;42.686;23.352;2022-12-08T00:24:18;59.30;;;24.67;;
41233;SDS011;26968;42.686;23.352;2022-12-08T00:26:45;56.50;;;26.15;;
41233;SDS011;26968;42.686;23.352;2022-12-08T00:29:11;54.85;;;26.00;;
41233;SDS011;26968;42.686;23.352;2022-12-08T00:31:37;67.82;;;26.42;;
41233;SDS011;26968;42.686;23.352;2022-12-08T00:34:03;53.22;;;24.10;;
41233;SDS011;26968;42.686;23.352;2022-12-08T00:36:29;57.78;;;26.08;;
41233;SDS011;26968;42.686;23.352;2022-12-08T00:38:55;57.20;;;25.45;;
41233;SDS011;26968;42.686;23.352;2022-12-08T00:41:21;62.95;;;27.55;;
41233;SDS011;26968;42.686;23.352;2022-12-08T00:44:09;57.42;;;26.58;;
41233;SDS011;26968;42.686;23.352;2022-12-08T00:46:35;55.00;;;26.05;;
41233;SDS011;26968;42.686;23.352;2022-12-08T00:49:02;53.83;;;26.92;;
41233;SDS011;26968;42.686;23.352;2022-12-08T00:51:28;67.65;;;27.88;;
41233;SDS011;26968;42.686;23.352;2022-12-08T00:53:53;59.97;;;28.48;;
41233;SDS011;26968;42.686;23.352;2022-12-08T00:56:18;71.63;;;29.63;;
41233;SDS011;26968;42.686;23.352;2022-12-08T00:58:44;62.60;;;26.83;;
41233;SDS011;26968;42.686;23.352;2022-12-08T01:01:09;53.58;;;26.17;;
41233;SDS011;26968;42.686;23.352;2022-12-08T01:03:35;57.35;;;25.35;;
41233;SDS011;26968;42.686;23.352;2022-12-08T01:06:02;61.97;;;26.05;;
41233;SDS011;26968;42.686;23.352;2022-12-08T01:08:28;67.20;;;27.20;;
41233;SDS011;26968;42.686;23.352;2022-12-08T01:10:53;62.20;;;24.35;;
41233;SDS011;26968;42.686;23.352;2022-12-08T01:13:19;49.85;;;24.88;;
41233;SDS011;26968;42.686;23.352;2022-12-08T01:15:44;54.40;;;24.38;;
41233;SDS011;26968;42.686;23.352;2022-12-08T01:18:10;53.42;;;23.95;;
41233;SDS011;26968;42.686;23.352;2022-12-08T01:20:35;51.50;;;23.60;;
41233;SDS011;26968;42.686;23.352;2022-12-08T01:23:00;50.17;;;23.55;;
41233;SDS011;26968;42.686;23.352;2022-12-08T01:25:26;55.05;;;25.08;;
41233;SDS011;26968;42.686;23.352;2022-12-08T01:27:51;56.88;;;24.83;;
41233;SDS011;26968;42.686;23.352;2022-12-08T01:30:17;49.15;;;23.27;;
41233;SDS011;26968;42.686;23.352;2022-12-08T01:32:44;54.65;;;24.02;;
41233;SDS011;26968;42.686;23.352;2022-12-08T01:35:09;52.20;;;24.17;;
41233;SDS011;26968;42.686;23.352;2022-12-08T01:37:35;46.15;;;22.33;;
41233;SDS011;26968;42.686;23.352;2022-12-08T01:40:00;48.50;;;20.77;;
41233;SDS011;26968;42.686;23.352;2022-12-08T01:42:26;50.17;;;22.58;;
41233;SDS011;26968;42.686;23.352;2022-12-08T01:44:52;52.28;;;22.27;;
41233;SDS011;26968;42.686;23.352;2022-12-08T01:47:28;47.67;;;21.25;;
41233;SDS011;26968;42.686;23.352;2022-12-08T01:49:58;49.10;;;23.25;;
41233;SDS011;26968;42.686;23.352;2022-12-08T01:53:07;45.85;;;22.95;;
41233;SDS011;26968;42.686;23.352;2022-12-08T01:57:51;61.70;;;24.98;;
41233;SDS011;26968;42.686;23.352;2022-12-08T02:00:21;47.67;;;22.67;;
41233;SDS011;26968;42.686;23.352;2022-12-08T02:02:52;53.85;;;23.33;;
41233;SDS011;26968;42.686;23.352;2022-12-08T02:05:19;50.38;;;22.05;;
41233;SDS011;26968;42.686;23.352;2022-12-08T02:07:47;51.05;;;23.20;;
41233;SDS011;26968;42.686;23.352;2022-12-08T02:10:15;59.25;;;25.95;;
41233;SDS011;26968;42.686;23.352;2022-12-08T02:12:44;51.30;;;26.02;;
41233;SDS011;26968;42.686;23.352;2022-12-08T02:15:11;59.85;;;27.08;;
41233;SDS011;26968;42.686;23.352;2022-12-08T02:20:47;54.53;;;25.35;;
41233;SDS011;26968;42.686;23.352;2022-12-08T02:23:45;60.60;;;23.70;;
41233;SDS011;26968;42.686;23.352;2022-12-08T02:26:44;50.30;;;23.35;;
41233;SDS011;26968;42.686;23.352;2022-12-08T02:34:46;64.07;;;25.98;;
41233;SDS011;26968;42.686;23.352;2022-12-08T02:37:25;52.40;;;25.58;;
41233;SDS011;26968;42.686;23.352;2022-12-08T02:40:19;58.92;;;24.05;;
41233;SDS011;26968;42.686;23.352;2022-12-08T02:42:49;53.28;;;24.02;;
41233;SDS011;26968;42.686;23.352;2022-12-08T02:45:22;54.80;;;24.80;;
41233;SDS011;26968;42.686;23.352;2022-12-08T02:47:48;54.63;;;25.10;;
41233;SDS011;26968;42.686;23.352;2022-12-08T02:50:15;56.40;;;26.23;;
41233;SDS011;26968;42.686;23.352;2022-12-08T02:52:45;52.85;;;25.77;;
41233;SDS011;26968;42.686;23.352;2022-12-08T03:00:54;57.38;;;25.65;;
41233;SDS011;26968;42.686;23.352;2022-12-08T03:06:47;55.10;;;24.42;;
41233;SDS011;26968;42.686;23.352;2022-12-08T03:14:49;51.72;;;24.25;;
41233;SDS011;26968;42.686;23.352;2022-12-08T03:17:18;56.10;;;26.98;;
41233;SDS011;26968;42.686;23.352;2022-12-08T03:19:47;50.55;;;23.65;;
41233;SDS011;26968;42.686;23.352;2022-12-08T03:22:14;55.92;;;25.17;;
41233;SDS011;26968;42.686;23.352;2022-12-08T03:24:44;49.42;;;24.17;;
41233;SDS011;26968;42.686;23.352;2022-12-08T03:27:14;54.20;;;22.75;;
41233;SDS011;26968;42.686;23.352;2022-12-08T03:29:46;50.17;;;24.30;;
41233;SDS011;26968;42.686;23.352;2022-12-08T03:32:21;46.42;;;22.45;;
41233;SDS011;26968;42.686;23.352;2022-12-08T03:34:53;46.55;;;23.45;;
41233;SDS011;26968;42.686;23.352;2022-12-08T03:37:20;64.57;;;25.52;;
41233;SDS011;26968;42.686;23.352;2022-12-08T03:39:45;55.38;;;25.38;;
41233;SDS011;26968;42.686;23.352;2022-12-08T03:42:11;57.15;;;26.83;;
41233;SDS011;26968;42.686;23.352;2022-12-08T03:44:37;59.42;;;26.90;;
41233;SDS011;26968;42.686;23.352;2022-12-08T03:47:02;59.42;;;28.05;;
41233;SDS011;26968;42.686;23.352;2022-12-08T03:49:28;57.15;;;25.92;;
41233;SDS011;26968;42.686;23.352;2022-12-08T03:51:54;54.90;;;25.88;;
41233;SDS011;26968;42.686;23.352;2022-12-08T03:54:19;62.45;;;26.65;;
41233;SDS011;26968;42.686;23.352;2022-12-08T03:56:44;53.33;;;24.23;;
41233;SDS011;26968;42.686;23.352;2022-12-08T03:59:10;52.58;;;24.02;;
41233;SDS011;26968;42.686;23.352;2022-12-08T04:01:35;56.30;;;24.80;;
41233;SDS011;26968;42.686;23.352;2022-12-08T04:04:01;57.42;;;24.77;;
41233;SDS011;26968;42.686;23.352;2022-12-08T04:06:26;53.88;;;24.35;;
41233;SDS011;26968;42.686;23.352;2022-12-08T04:08:53;53.40;;;25.83;;
41233;SDS011;26968;42.686;23.352;2022-12-08T04:11:19;57.05;;;27.60;;
41233;SDS011;26968;42.686;23.352;2022-12-08T04:13:44;51.38;;;23.77;;
41233;SDS011;26968;42.686;23.352;2022-12-08T04:16:14;62.45;;;26.10;;
41233;SDS011;26968;42.686;23.352;2022-12-08T04:18:41;61.53;;;27.65;;
41233;SDS011;26968;42.686;23.352;2022-12-08T04:21:06;55.20;;;25.55;;
41233;SDS011;26968;42.686;23.352;2022-12-08T04:23:32;61.65;;;26.45;;
41233;SDS011;26968;42.686;23.352;2022-12-08T04:25:57;55.05;;;27.80;;
41233;SDS011;26968;42.686;23.352;2022-12-08T04:28:22;57.10;;;25.48;;
41233;SDS011;26968;42.686;23.352;2022-12-08T04:30:48;54.55;;;25.85;;
41233;SDS011;26968;42.686;23.352;2022-12-08T04:33:13;63.15;;;28.42;;
41233;SDS011;26968;42.686;23.352;2022-12-08T04:35:39;60.00;;;26.38;;
41233;SDS011;26968;42.686;23.352;2022-12-08T04:38:04;58.17;;;27.70;;
41233;SDS011;26968;42.686;23.352;2022-12-08T04:40:30;50.47;;;26.60;;
41233;SDS011;26968;42.686;23.352;2022-12-08T04:42:55;64.57;;;28.50;;
41233;SDS011;26968;42.686;23.352;2022-12-08T04:45:21;72.22;;;26.77;;
41233;SDS011;26968;42.686;23.352;2022-12-08T04:47:46;59.47;;;28.10;;
41233;SDS011;26968;42.686;23.352;2022-12-08T04:50:12;57.65;;;26.58;;
41233;SDS011;26968;42.686;23.352;2022-12-08T04:52:38;56.83;;;27.50;;
41233;SDS011;26968;42.686;23.352;2022-12-08T04:55:04;55.45;;;26.67;;
41233;SDS011;26968;42.686;23.352;2022-12-08T04:57:29;66.18;;;27.35;;
41233;SDS011;26968;42.686;23.352;2022-12-08T04:59:55;63.95;;;28.17;;
41233;SDS011;26968;42.686;23.352;2022-12-08T05:02:20;63.33;;;29.23;;
41233;SDS011;26968;42.686;23.352;2022-12-08T05:04:46;63.05;;;27.83;;
41233;SDS011;26968;42.686;23.352;2022-12-08T05:07:11;70.05;;;28.38;;
41233;SDS011;26968;42.686;23.352;2022-12-08T05:09:36;68.28;;;30.77;;
41233;SDS011;26968;42.686;23.352;2022-12-08T05:12:02;76.28;;;33.25;;
41233;SDS011;26968;42.686;23.352;2022-12-08T05:14:28;87.93;;;34.95;;
41233;SDS011;26968;42.686;23.352;2022-12-08T05:16:54;77.22;;;33.70;;
41233;SDS011;26968;42.686;23.352;2022-12-08T05:19:19;85.13;;;36.58;;
41233;SDS011;26968;42.686;23.352;2022-12-08T05:21:45;84.35;;;36.90;;
41233;SDS011;26968;42.686;23.352;2022-12-08T05:24:10;78.03;;;33.35;;
41233;SDS011;26968;42.686;23.352;2022-12-08T05:26:36;81.68;;;33.60;;
41233;SDS011;26968;42.686;23.352;2022-12-08T05:29:01;79.53;;;33.33;;
41233;SDS011;26968;42.686;23.352;2022-12-08T05:31:27;69.93;;;32.50;;
41233;SDS011;26968;42.686;23.352;2022-12-08T05:33:52;71.15;;;29.83;;
41233;SDS011;26968;42.686;23.352;2022-12-08T05:36:18;62.95;;;31.52;;
41233;SDS011;26968;42.686;23.352;2022-12-08T05:38:44;65.85;;;32.13;;
41233;SDS011;26968;42.686;23.352;2022-12-08T05:41:15;65.57;;;29.90;;
41233;SDS011;26968;42.686;23.352;2022-12-08T05:43:43;61.20;;;30.17;;
41233;SDS011;26968;42.686;23.352;2022-12-08T05:46:09;72.55;;;30.05;;
41233;SDS011;26968;42.686;23.352;2022-12-08T05:48:35;64.15;;;30.15;;
41233;SDS011;26968;42.686;23.352;2022-12-08T05:51:01;72.55;;;31.40;;
41233;SDS011;26968;42.686;23.352;2022-12-08T05:53:26;60.60;;;28.48;;
41233;SDS011;26968;42.686;23.352;2022-12-08T05:55:52;60.75;;;30.05;;
41233;SDS011;26968;42.686;23.352;2022-12-08T05:58:19;57.08;;;27.92;;
41233;SDS011;26968;42.686;23.352;2022-12-08T06:00:46;67.47;;;30.73;;
41233;SDS011;26968;42.686;23.352;2022-12-08T06:03:13;70.70;;;30.63;;
41233;SDS011;26968;42.686;23.352;2022-12-08T06:05:40;73.00;;;32.22;;
41233;SDS011;26968;42.686;23.352;2022-12-08T06:08:06;70.70;;;30.80;;
41233;SDS011;26968;42.686;23.352;2022-12-08T06:10:32;73.82;;;32.47;;
41233;SDS011;26968;42.686;23.352;2022-12-08T06:12:58;68.38;;;31.00;;
41233;SDS011;26968;42.686;23.352;2022-12-08T06:15:23;81.03;;;32.75;;
41233;SDS011;26968;42.686;23.352;2022-12-08T06:17:51;74.05;;;34.05;;
41233;SDS011;26968;42.686;23.352;2022-12-08T06:20:17;93.05;;;36.80;;
41233;SDS011;26968;42.686;23.352;2022-12-08T06:22:43;111.22;;;39.38;;
41233;SDS011;26968;42.686;23.352;2022-12-08T06:25:08;103.57;;;39.20;;
41233;SDS011;26968;42.686;23.352;2022-12-08T06:27:34;85.05;;;38.67;;
41233;SDS011;26968;42.686;23.352;2022-12-08T06:29:59;83.30;;;39.03;;
41233;SDS011;26968;42.686;23.352;2022-12-08T06:32:25;76.05;;;33.42;;
41233;SDS011;26968;42.686;23.352;2022-12-08T06:34:51;82.32;;;36.53;;
41233;SDS011;26968;42.686;23.352;2022-12-08T06:37:16;81.13;;;39.85;;
41233;SDS011;26968;42.686;23.352;2022-12-08T06:39:42;80.40;;;37.28;;
41233;SDS011;26968;42.686;23.352;2022-12-08T06:42:08;75.50;;;34.38;;
41233;SDS011;26968;42.686;23.352;2022-12-08T06:44:51;79.82;;;35.28;;
41233;SDS011;26968;42.686;23.352;2022-12-08T06:47:17;73.35;;;35.70;;
41233;SDS011;26968;42.686;23.352;2022-12-08T06:49:45;80.25;;;37.35;;
41233;SDS011;26968;42.686;23.352;2022-12-08T06:52:10;80.25;;;35.80;;
41233;SDS011;26968;42.686;23.352;2022-12-08T06:54:35;76.70;;;35.65;;
41233;SDS011;26968;42.686;23.352;2022-12-08T06:57:01;73.75;;;33.33;;
41233;SDS011;26968;42.686;23.352;2022-12-08T06:59:26;96.13;;;34.55;;
41233;SDS011;26968;42.686;23.352;2022-12-08T07:01:52;73.80;;;34.08;;
41233;SDS011;26968;42.686;23.352;2022-12-08T07:04:17;77.78;;;33.60;;
41233;SDS011;26968;42.686;23.352;2022-12-08T07:06:42;81.93;;;34.75;;
41233;SDS011;26968;42.686;23.352;2022-12-08T07:09:08;83.90;;;34.92;;
41233;SDS011;26968;42.686;23.352;2022-12-08T07:11:33;69.70;;;31.05;;
41233;SDS011;26968;42.686;23.352;2022-12-08T07:13:59;69.68;;;31.67;;
41233;SDS011;26968;42.686;23.352;2022-12-08T07:16:24;76.32;;;33.67;;
41233;SDS011;26968;42.686;23.352;2022-12-08T07:18:49;70.10;;;29.95;;
41233;SDS011;26968;42.686;23.352;2022-12-08T07:21:15;67.57;;;31.45;;
41233;SDS011;26968;42.686;23.352;2022-12-08T07:23:43;78.32;;;34.90;;
41233;SDS011;26968;42.686;23.352;2022-12-08T07:26:11;84.10;;;35.22;;
41233;SDS011;26968;42.686;23.352;2022-12-08T07:28:37;86.00;;;37.95;;
41233;SDS011;26968;42.686;23.352;2022-12-08T07:31:05;89.70;;;42.22;;
41233;SDS011;26968;42.686;23.352;2022-12-08T07:33:32;98.38;;;43.63;;
41233;SDS011;26968;42.686;23.352;2022-12-08T07:35:59;93.10;;;41.47;;
41233;SDS011;26968;42.686;23.352;2022-12-08T07:38:26;90.70;;;41.50;;
41233;SDS011;26968;42.686;23.352;2022-12-08T07:40:52;100.88;;;42.75;;
41233;SDS011;26968;42.686;23.352;2022-12-08T07:43:18;91.53;;;44.30;;
41233;SDS011;26968;42.686;23.352;2022-12-08T07:45:44;98.63;;;45.35;;
41233;SDS011;26968;42.686;23.352;2022-12-08T07:48:10;115.05;;;45.60;;
41233;SDS011;26968;42.686;23.352;2022-12-08T07:50:38;97.85;;;39.90;;
41233;SDS011;26968;42.686;23.352;2022-12-08T07:53:04;89.60;;;41.17;;
41233;SDS011;26968;42.686;23.352;2022-12-08T07:55:30;87.53;;;41.00;;
41233;SDS011;26968;42.686;23.352;2022-12-08T07:57:56;102.30;;;42.28;;
41233;SDS011;26968;42.686;23.352;2022-12-08T08:00:21;100.07;;;44.88;;
41233;SDS011;26968;42.686;23.352;2022-12-08T08:02:47;87.40;;;40.40;;
41233;SDS011;26968;42.686;23.352;2022-12-08T08:05:13;89.82;;;42.72;;
41233;SDS011;26968;42.686;23.352;2022-12-08T08:07:41;89.53;;;41.15;;
41233;SDS011;26968;42.686;23.352;2022-12-08T08:10:09;88.90;;;41.60;;
41233;SDS011;26968;42.686;23.352;2022-12-08T08:12:35;87.78;;;38.00;;
41233;SDS011;26968;42.686;23.352;2022-12-08T08:15:03;82.07;;;36.17;;
41233;SDS011;26968;42.686;23.352;2022-12-08T08:17:32;84.20;;;36.75;;
41233;SDS011;26968;42.686;23.352;2022-12-08T08:19:58;79.72;;;33.53;;
41233;SDS011;26968;42.686;23.352;2022-12-08T08:22:24;80.75;;;34.85;;
41233;SDS011;26968;42.686;23.352;2022-12-08T08:24:50;74.80;;;34.50;;
41233;SDS011;26968;42.686;23.352;2022-12-08T08:27:16;74.75;;;33.88;;
41233;SDS011;26968;42.686;23.352;2022-12-08T08:29:41;78.82;;;34.00;;
41233;SDS011;26968;42.686;23.352;2022-12-08T08:32:07;81.50;;;36.33;;
41233;SDS011;26968;42.686;23.352;2022-12-08T08:34:32;78.85;;;35.05;;
41233;SDS011;26968;42.686;23.352;2022-12-08T08:36:58;81.63;;;34.13;;
41233;SDS011;26968;42.686;23.352;2022-12-08T08:39:23;69.30;;;29.95;;
41233;SDS011;26968;42.686;23.352;2022-12-08T08:41:49;69.47;;;30.33;;
41233;SDS011;26968;42.686;23.352;2022-12-08T08:44:14;66.18;;;29.45;;
41233;SDS011;26968;42.686;23.352;2022-12-08T08:46:40;59.33;;;28.25;;
41233;SDS011;26968;42.686;23.352;2022-12-08T08:49:06;59.15;;;27.75;;
41233;SDS011;26968;42.686;23.352;2022-12-08T08:51:31;50.85;;;26.77;;
41233;SDS011;26968;42.686;23.352;2022-12-08T08:53:57;61.90;;;29.42;;
41233;SDS011;26968;42.686;23.352;2022-12-08T08:56:22;70.20;;;33.78;;
41233;SDS011;26968;42.686;23.352;2022-12-08T08:58:49;64.80;;;33.17;;
41233;SDS011;26968;42.686;23.352;2022-12-08T09:01:16;74.28;;;35.92;;
41233;SDS011;26968;42.686;23.352;2022-12-08T09:03:43;58.08;;;27.95;;
41233;SDS011;26968;42.686;23.352;2022-12-08T09:06:09;70.18;;;29.60;;
41233;SDS011;26968;42.686;23.352;2022-12-08T09:08:35;64.32;;;29.25;;
41233;SDS011;26968;42.686;23.352;2022-12-08T09:11:00;56.47;;;26.27;;
41233;SDS011;26968;42.686;23.352;2022-12-08T09:13:26;66.32;;;25.40;;
41233;SDS011;26968;42.686;23.352;2022-12-08T09:15:51;52.40;;;25.23;;
41233;SDS011;26968;42.686;23.352;2022-12-08T09:18:16;47.47;;;23.90;;
41233;SDS011;26968;42.686;23.352;2022-12-08T09:20:42;46.97;;;22.40;;
41233;SDS011;26968;42.686;23.352;2022-12-08T09:23:07;42.97;;;21.00;;
41233;SDS011;26968;42.686;23.352;2022-12-08T09:25:33;46.20;;;22.45;;
41233;SDS011;26968;42.686;23.352;2022-12-08T09:27:58;48.50;;;21.85;;
41233;SDS011;26968;42.686;23.352;2022-12-08T09:30:24;54.92;;;21.73;;
41233;SDS011;26968;42.686;23.352;2022-12-08T09:32:49;50.85;;;20.45;;
41233;SDS011;26968;42.686;23.352;2022-12-08T09:35:16;42.50;;;19.35;;
41233;SDS011;26968;42.686;23.352;2022-12-08T09:37:41;47.47;;;22.27;;
41233;SDS011;26968;42.686;23.352;2022-12-08T09:40:07;50.40;;;23.58;;
41233;SDS011;26968;42.686;23.352;2022-12-08T09:42:41;46.17;;;22.40;;
41233;SDS011;26968;42.686;23.352;2022-12-08T09:45:08;54.45;;;25.02;;
41233;SDS011;26968;42.686;23.352;2022-12-08T09:55:45;125.10;;;59.33;;
41233;SDS011;26968;42.686;23.352;2022-12-08T10:01:18;72.75;;;31.35;;
41233;SDS011;26968;42.686;23.352;2022-12-08T10:03:45;68.18;;;34.15;;
41233;SDS011;26968;42.686;23.352;2022-12-08T10:09:05;77.60;;;37.90;;
41233;SDS011;26968;42.686;23.352;2022-12-08T10:15:02;70.25;;;31.98;;
41233;SDS011;26968;42.686;23.352;2022-12-08T10:17:54;61.45;;;30.88;;
41233;SDS011;26968;42.686;23.352;2022-12-08T10:20:25;72.70;;;28.30;;
41233;SDS011;26968;42.686;23.352;2022-12-08T10:28:12;47.65;;;24.38;;
41233;SDS011;26968;42.686;23.352;2022-12-08T10:30:39;45.42;;;22.08;;
41233;SDS011;26968;42.686;23.352;2022-12-08T10:33:08;39.17;;;21.05;;
41233;SDS011;26968;42.686;23.352;2022-12-08T10:35:46;40.63;;;21.60;;
41233;SDS011;26968;42.686;23.352;2022-12-08T10:38:24;43.20;;;22.25;;
41233;SDS011;26968;42.686;23.352;2022-12-08T10:40:55;47.20;;;22.73;;
41233;SDS011;26968;42.686;23.352;2022-12-08T10:43:30;44.22;;;23.27;;
41233;SDS011;26968;42.686;23.352;2022-12-08T10:46:07;46.03;;;23.35;;
41233;SDS011;26968;42.686;23.352;2022-12-08T10:48:40;46.17;;;22.30;;
41233;SDS011;26968;42.686;23.352;2022-12-08T10:51:35;47.45;;;21.60;;
41233;SDS011;26968;42.686;23.352;2022-12-08T10:54:02;38.90;;;20.67;;
41233;SDS011;26968;42.686;23.352;2022-12-08T10:56:30;35.03;;;17.73;;
41233;SDS011;26968;42.686;23.352;2022-12-08T10:59:04;39.47;;;19.48;;
41233;SDS011;26968;42.686;23.352;2022-12-08T11:01:46;42.33;;;19.52;;
41233;SDS011;26968;42.686;23.352;2022-12-08T11:04:21;41.72;;;18.52;;
41233;SDS011;26968;42.686;23.352;2022-12-08T11:07:02;31.65;;;17.17;;
41233;SDS011;26968;42.686;23.352;2022-12-08T11:09:35;41.75;;;20.48;;
41233;SDS011;26968;42.686;23.352;2022-12-08T11:12:12;43.67;;;20.95;;
41233;SDS011;26968;42.686;23.352;2022-12-08T11:17:16;36.75;;;17.80;;
41233;SDS011;26968;42.686;23.352;2022-12-08T11:20:17;44.38;;;21.08;;
41233;SDS011;26968;42.686;23.352;2022-12-08T11:22:50;36.92;;;19.70;;
41233;SDS011;26968;42.686;23.352;2022-12-08T11:27:49;39.10;;;19.20;;
41233;SDS011;26968;42.686;23.352;2022-12-08T11:33:17;46.92;;;19.30;;
41233;SDS011;26968;42.686;23.352;2022-12-08T11:36:01;34.45;;;18.70;;
41233;SDS011;26968;42.686;23.352;2022-12-08T11:38:28;47.70;;;18.92;;
41233;SDS011;26968;42.686;23.352;2022-12-08T11:41:04;31.25;;;16.88;;
41233;SDS011;26968;42.686;23.352;2022-12-08T11:51:27;48.22;;;17.63;;
41233;SDS011;26968;42.686;23.352;2022-12-08T11:56:48;39.15;;;17.48;;
41233;SDS011;26968;42.686;23.352;2022-12-08T12:01:43;39.40;;;17.10;;
41233;SDS011;26968;42.686;23.352;2022-12-08T12:12:19;30.88;;;14.73;;
41233;SDS011;26968;42.686;23.352;2022-12-08T12:20:50;29.67;;;15.52;;
41233;SDS011;26968;42.686;23.352;2022-12-08T12:23:22;19.15;;;10.95;;
41233;SDS011;26968;42.686;23.352;2022-12-08T12:25:59;27.52;;;11.57;;
41233;SDS011;26968;42.686;23.352;2022-12-08T12:28:29;21.58;;;12.32;;
41233;SDS011;26968;42.686;23.352;2022-12-08T12:31:11;23.15;;;11.57;;
41233;SDS011;26968;42.686;23.352;2022-12-08T12:33:41;21.63;;;11.85;;
41233;SDS011;26968;42.686;23.352;2022-12-08T12:36:08;30.13;;;13.93;;
41233;SDS011;26968;42.686;23.352;2022-12-08T12:38:36;24.35;;;12.32;;
41233;SDS011;26968;42.686;23.352;2022-12-08T13:04:51;20.67;;;11.80;;
41233;SDS011;26968;42.686;23.352;2022-12-08T13:07:21;22.17;;;11.70;;
41233;SDS011;26968;42.686;23.352;2022-12-08T13:09:57;26.38;;;13.63;;
41233;SDS011;26968;42.686;23.352;2022-12-08T13:12:27;31.15;;;16.48;;
41233;SDS011;26968;42.686;23.352;2022-12-08T13:14:55;34.65;;;15.07;;
41233;SDS011;26968;42.686;23.352;2022-12-08T13:17:27;30.55;;;15.82;;
41233;SDS011;26968;42.686;23.352;2022-12-08T13:19:55;25.63;;;14.70;;
41233;SDS011;26968;42.686;23.352;2022-12-08T13:28:17;27.67;;;12.48;;
41233;SDS011;26968;42.686;23.352;2022-12-08T13:30:44;28.48;;;12.45;;
41233;SDS011;26968;42.686;23.352;2022-12-08T13:38:52;32.28;;;14.60;;
41233;SDS011;26968;42.686;23.352;2022-12-08T13:41:21;30.50;;;14.57;;
41233;SDS011;26968;42.686;23.352;2022-12-08T13:43:55;33.05;;;14.25;;
41233;SDS011;26968;42.686;23.352;2022-12-08T13:46:28;26.42;;;13.15;;
41233;SDS011;26968;42.686;23.352;2022-12-08T13:49:01;26.38;;;13.57;;
41233;SDS011;26968;42.686;23.352;2022-12-08T13:51:36;33.85;;;14.68;;
41233;SDS011;26968;42.686;23.352;2022-12-08T13:54:07;32.97;;;13.23;;
41233;SDS011;26968;42.686;23.352;2022-12-08T13:56:41;28.38;;;14.27;;
41233;SDS011;26968;42.686;23.352;2022-12-08T14:02:04;30.73;;;15.35;;
41233;SDS011;26968;42.686;23.352;2022-12-08T14:04:46;41.75;;;15.57;;
41233;SDS011;26968;42.686;23.352;2022-12-08T14:07:12;43.15;;;19.45;;
41233;SDS011;26968;42.686;23.352;2022-12-08T14:09:38;38.72;;;16.73;;
41233;SDS011;26968;42.686;23.352;2022-12-08T14:14:40;43.13;;;17.90;;
41233;SDS011;26968;42.686;23.352;2022-12-08T14:17:19;47.08;;;17.92;;
41233;SDS011;26968;42.686;23.352;2022-12-08T14:22:38;45.60;;;17.90;;
41233;SDS011;26968;42.686;23.352;2022-12-08T14:25:06;38.65;;;17.52;;
41233;SDS011;26968;42.686;23.352;2022-12-08T14:27:39;57.38;;;18.30;;
41233;SDS011;26968;42.686;23.352;2022-12-08T14:30:06;41.90;;;18.88;;
41233;SDS011;26968;42.686;23.352;2022-12-08T14:37:33;49.08;;;22.05;;
41233;SDS011;26968;42.686;23.352;2022-12-08T14:40:28;58.00;;;27.13;;
41233;SDS011;26968;42.686;23.352;2022-12-08T14:45:31;75.97;;;37.40;;
41233;SDS011;26968;42.686;23.352;2022-12-08T14:53:29;75.93;;;36.00;;
41233;SDS011;26968;42.686;23.352;2022-12-08T14:56:15;73.25;;;34.13;;
41233;SDS011;26968;42.686;23.352;2022-12-08T14:58:44;72.93;;;33.70;;
41233;SDS011;26968;42.686;23.352;2022-12-08T15:01:13;80.00;;;38.67;;
41233;SDS011;26968;42.686;23.352;2022-12-08T15:03:41;69.05;;;34.22;;
41233;SDS011;26968;42.686;23.352;2022-12-08T15:06:07;85.00;;;35.25;;
41233;SDS011;26968;42.686;23.352;2022-12-08T15:08:39;77.53;;;34.60;;
41233;SDS011;26968;42.686;23.352;2022-12-08T15:13:48;65.75;;;28.52;;
41233;SDS011;26968;42.686;23.352;2022-12-08T15:19:01;77.40;;;32.15;;
41233;SDS011;26968;42.686;23.352;2022-12-08T15:21:28;65.57;;;30.73;;
41233;SDS011;26968;42.686;23.352;2022-12-08T15:23:55;71.07;;;31.08;;
41233;SDS011;26968;42.686;23.352;2022-12-08T15:26:24;77.05;;;31.98;;
41233;SDS011;26968;42.686;23.352;2022-12-08T15:28:51;93.35;;;33.08;;
41233;SDS011;26968;42.686;23.352;2022-12-08T15:31:18;79.13;;;32.38;;
41233;SDS011;26968;42.686;23.352;2022-12-08T15:33:44;65.35;;;34.78;;
41233;SDS011;26968;42.686;23.352;2022-12-08T15:36:09;79.15;;;33.65;;
41233;SDS011;26968;42.686;23.352;2022-12-08T15:38:35;91.20;;;33.95;;
41233;SDS011;26968;42.686;23.352;2022-12-08T15:41:02;80.90;;;32.35;;
41233;SDS011;26968;42.686;23.352;2022-12-08T15:43:28;82.82;;;35.17;;
41233;SDS011;26968;42.686;23.352;2022-12-08T15:45:55;81.53;;;34.13;;
41233;SDS011;26968;42.686;23.352;2022-12-08T15:48:22;83.70;;;34.28;;
41233;SDS011;26968;42.686;23.352;2022-12-08T15:50:50;72.45;;;34.20;;
41233;SDS011;26968;42.686;23.352;2022-12-08T15:53:17;77.32;;;35.03;;
41233;SDS011;26968;42.686;23.352;2022-12-08T15:55:42;70.95;;;34.83;;
41233;SDS011;26968;42.686;23.352;2022-12-08T15:58:22;72.43;;;35.20;;
41233;SDS011;26968;42.686;23.352;2022-12-08T16:00:48;78.00;;;34.67;;
41233;SDS011;26968;42.686;23.352;2022-12-08T16:03:23;56.67;;;26.83;;
41233;SDS011;26968;42.686;23.352;2022-12-08T16:05:52;45.40;;;24.67;;
41233;SDS011;26968;42.686;23.352;2022-12-08T16:08:19;56.08;;;23.25;;
41233;SDS011;26968;42.686;23.352;2022-12-08T16:10:46;48.30;;;23.33;;
41233;SDS011;26968;42.686;23.352;2022-12-08T16:13:13;41.85;;;21.02;;
41233;SDS011;26968;42.686;23.352;2022-12-08T16:15:59;42.83;;;19.27;;
41233;SDS011;26968;42.686;23.352;2022-12-08T16:18:27;40.17;;;18.52;;
41233;SDS011;26968;42.686;23.352;2022-12-08T16:20:58;38.55;;;18.33;;
41233;SDS011;26968;42.686;23.352;2022-12-08T16:23:25;34.65;;;16.55;;
41233;SDS011;26968;42.686;23.352;2022-12-08T16:25:50;46.65;;;19.88;;
41233;SDS011;26968;42.686;23.352;2022-12-08T16:28:16;52.83;;;20.85;;
41233;SDS011;26968;42.686;23.352;2022-12-08T16:30:41;57.03;;;24.83;;
41233;SDS011;26968;42.686;23.352;2022-12-08T16:33:08;69.28;;;25.77;;
41233;SDS011;26968;42.686;23.352;2022-12-08T16:35:37;46.38;;;21.67;;
41233;SDS011;26968;42.686;23.352;2022-12-08T16:38:02;55.40;;;23.25;;
41233;SDS011;26968;42.686;23.352;2022-12-08T16:40:28;52.38;;;21.77;;
41233;SDS011;26968;42.686;23.352;2022-12-08T16:42:54;60.28;;;24.00;;
41233;SDS011;26968;42.686;23.352;2022-12-08T16:47:50;57.75;;;24.38;;